Great Neck, NY

7:33 AM EDT on September 23, 2014 (GMT -0400)
Kennedy International | Change Station
CLOSE
Current Station
Airport
Location: New York JFK,
Elevation: 23 ft
Nearby Weather Stations

Elev 23 ft 40.64 °N, 73.76 °W | Updated 42 minutes ago

Clear
Clear
51 °F
Feels Like 51 °F
N
6
Wind Variable Wind from North

Today
High -- | Low -- °F
--% Chance of Precip.
Yesterday
High -- | Low -- °F
Precip. -- in
6:43 AM 6:50 PM
Waning Crescent, 1% visible
Pressure 30.29 in
Visibility 10.0 miles
Clouds Few 25000 ft
Dew Point 40 °F
Humidity 66%
Rainfall 0.00 in
Snow Depth Not available.
UV 0 out of 12
Pollen 3.10 out of 12
Air Quality Not available.
Flu Activity Not available.
METAR KJFK 231051Z 36005KT 10SM FEW250 11/04 A3029 RMK AO2 SLP255 T01060044

More Conditions Fewer Conditions

Pressure 30.29 in
Visibility 10.0 miles
Clouds Few 25000 ft
Dew Point 40 °F
Humidity 66%
Rainfall 0.00 in
Snow Depth Not available.
UV 0 out of 12
Pollen 3.10 out of 12
Air Quality Not available.
Flu Activity Not available.
METAR KJFK 231051Z 36005KT 10SM FEW250 11/04 A3029 RMK AO2 SLP255 T01060044

More Conditions Fewer Conditions

10-Day Weather Forecast

Almanac

Astronomy

Sep. 23, 2014 Rise Set
Actual Time 6:43 AM EDT 6:50 PM EDT
Civil Twilight 6:16 AM EDT 7:17 PM EDT
Nautical Twilight 5:44 AM EDT 7:49 PM EDT
Astronomical Twilight 5:11 AM EDT 8:22 PM EDT
Moon 6:05 AM EDT 6:27 PM EDT
Length of Visible Light 13h 01m
Length of Day
12h 07m
Tomorrow will be 2m 41s shorter.
Waning Crescent, 1% of the Moon is Illuminated
Today
Waning Crescent
Sep 24
New
Oct 1
First Quarter
Oct 8
Full
Oct 15
Last Quarter

Today's Extremes

State Highs State Lows

Community

WunderPhotos

Upload Photos

1,755,644 photos uploaded!

Nearby

Snow Depth

Station Depth Elevation
No new snow has been reported.

Earthquake Activity

City Distance Mag. Time & Date
No recent earthquake activity has been reported nearby.
Minimum magnitude displayed is 2.5.

Coastal Water Temperatures

Place Temperature
Kings Point, NY 64.9 °F
Bridgeport, CT 69.1 °F

Nearby Weather Stations